sensor_id;sensor_type;location;lat;lon;timestamp;temperature;humidity
77496;SHT31;66600;48.378;9.948;2023-04-09T00:02:08;4.49;87.24
77496;SHT31;66600;48.378;9.948;2023-04-09T00:04:34;4.49;87.32
77496;SHT31;66600;48.378;9.948;2023-04-09T00:06:59;4.52;87.23
77496;SHT31;66600;48.378;9.948;2023-04-09T00:09:25;4.54;87.12
77496;SHT31;66600;48.378;9.948;2023-04-09T00:11:50;4.55;87.20
77496;SHT31;66600;48.378;9.948;2023-04-09T00:14:15;4.55;87.10
77496;SHT31;66600;48.378;9.948;2023-04-09T00:16:41;4.58;87.05
77496;SHT31;66600;48.378;9.948;2023-04-09T00:19:06;4.55;87.07
77496;SHT31;66600;48.378;9.948;2023-04-09T00:21:31;4.55;87.24
77496;SHT31;66600;48.378;9.948;2023-04-09T00:23:57;4.58;87.09
77496;SHT31;66600;48.378;9.948;2023-04-09T00:26:22;4.55;86.77
77496;SHT31;66600;48.378;9.948;2023-04-09T00:28:47;4.56;86.88
77496;SHT31;66600;48.378;9.948;2023-04-09T00:31:12;4.65;86.70
77496;SHT31;66600;48.378;9.948;2023-04-09T00:33:38;4.66;86.91
77496;SHT31;66600;48.378;9.948;2023-04-09T00:36:03;4.63;86.98
77496;SHT31;66600;48.378;9.948;2023-04-09T00:38:29;4.66;86.74
77496;SHT31;66600;48.378;9.948;2023-04-09T00:40:55;4.71;86.65
77496;SHT31;66600;48.378;9.948;2023-04-09T00:43:20;4.69;86.71
77496;SHT31;66600;48.378;9.948;2023-04-09T00:45:46;4.69;86.68
77496;SHT31;66600;48.378;9.948;2023-04-09T00:48:12;4.71;86.62
77496;SHT31;66600;48.378;9.948;2023-04-09T00:50:37;4.69;86.76
77496;SHT31;66600;48.378;9.948;2023-04-09T00:53:04;4.68;87.11
77496;SHT31;66600;48.378;9.948;2023-04-09T00:55:29;4.71;86.53
77496;SHT31;66600;48.378;9.948;2023-04-09T00:57:55;4.63;86.88
77496;SHT31;66600;48.378;9.948;2023-04-09T01:00:20;4.68;86.62
77496;SHT31;66600;48.378;9.948;2023-04-09T01:02:47;4.62;86.75
77496;SHT31;66600;48.378;9.948;2023-04-09T01:05:13;4.63;86.94
77496;SHT31;66600;48.378;9.948;2023-04-09T01:10:37;4.61;87.41
77496;SHT31;66600;48.378;9.948;2023-04-09T01:13:09;4.61;87.33
77496;SHT31;66600;48.378;9.948;2023-04-09T01:15:40;4.59;86.62
77496;SHT31;66600;48.378;9.948;2023-04-09T01:20:57;4.51;86.16
77496;SHT31;66600;48.378;9.948;2023-04-09T01:26:16;4.55;86.35
77496;SHT31;66600;48.378;9.948;2023-04-09T01:28:45;4.52;86.40
77496;SHT31;66600;48.378;9.948;2023-04-09T01:31:14;4.54;86.29
77496;SHT31;66600;48.378;9.948;2023-04-09T01:33:43;4.49;86.51
77496;SHT31;66600;48.378;9.948;2023-04-09T01:36:09;4.51;86.60
77496;SHT31;66600;48.378;9.948;2023-04-09T01:38:36;4.46;86.78
77496;SHT31;66600;48.378;9.948;2023-04-09T01:41:04;4.46;86.83
77496;SHT31;66600;48.378;9.948;2023-04-09T01:43:31;4.45;86.98
77496;SHT31;66600;48.378;9.948;2023-04-09T01:45:59;4.41;86.67
77496;SHT31;66600;48.378;9.948;2023-04-09T01:48:26;4.34;86.85
77496;SHT31;66600;48.378;9.948;2023-04-09T01:50:51;4.31;87.01
77496;SHT31;66600;48.378;9.948;2023-04-09T01:53:16;4.33;87.08
77496;SHT31;66600;48.378;9.948;2023-04-09T01:55:42;4.33;87.18
77496;SHT31;66600;48.378;9.948;2023-04-09T01:58:07;4.30;87.56
77496;SHT31;66600;48.378;9.948;2023-04-09T02:00:44;4.30;87.70
77496;SHT31;66600;48.378;9.948;2023-04-09T02:03:22;4.30;87.84
77496;SHT31;66600;48.378;9.948;2023-04-09T02:05:55;4.28;87.77
77496;SHT31;66600;48.378;9.948;2023-04-09T02:08:22;4.33;87.49
77496;SHT31;66600;48.378;9.948;2023-04-09T02:10:54;4.27;87.80
77496;SHT31;66600;48.378;9.948;2023-04-09T02:13:21;4.30;87.87
77496;SHT31;66600;48.378;9.948;2023-04-09T02:15:48;4.34;87.69
77496;SHT31;66600;48.378;9.948;2023-04-09T02:18:22;4.34;87.63
77496;SHT31;66600;48.378;9.948;2023-04-09T02:20:47;4.31;87.66
77496;SHT31;66600;48.378;9.948;2023-04-09T02:23:14;4.25;87.92
77496;SHT31;66600;48.378;9.948;2023-04-09T02:25:40;4.25;88.07
77496;SHT31;66600;48.378;9.948;2023-04-09T02:28:05;4.27;87.90
77496;SHT31;66600;48.378;9.948;2023-04-09T02:30:30;4.18;87.70
77496;SHT31;66600;48.378;9.948;2023-04-09T02:32:56;4.20;88.14
77496;SHT31;66600;48.378;9.948;2023-04-09T02:35:21;4.24;87.88
77496;SHT31;66600;48.378;9.948;2023-04-09T02:37:46;4.28;87.94
77496;SHT31;66600;48.378;9.948;2023-04-09T02:40:12;4.28;87.93
77496;SHT31;66600;48.378;9.948;2023-04-09T02:42:37;4.34;87.82
77496;SHT31;66600;48.378;9.948;2023-04-09T02:45:03;4.34;87.73
77496;SHT31;66600;48.378;9.948;2023-04-09T02:47:28;4.28;87.82
77496;SHT31;66600;48.378;9.948;2023-04-09T02:49:54;4.30;87.87
77496;SHT31;66600;48.378;9.948;2023-04-09T02:52:19;4.28;87.70
77496;SHT31;66600;48.378;9.948;2023-04-09T02:54:48;4.37;87.53
77496;SHT31;66600;48.378;9.948;2023-04-09T02:57:13;4.31;87.33
77496;SHT31;66600;48.378;9.948;2023-04-09T02:59:39;4.38;87.15
77496;SHT31;66600;48.378;9.948;2023-04-09T03:02:04;4.37;87.09
77496;SHT31;66600;48.378;9.948;2023-04-09T03:04:30;4.31;87.40
77496;SHT31;66600;48.378;9.948;2023-04-09T03:06:55;4.34;87.46
77496;SHT31;66600;48.378;9.948;2023-04-09T03:09:20;4.37;87.39
77496;SHT31;66600;48.378;9.948;2023-04-09T03:11:46;4.30;87.68
77496;SHT31;66600;48.378;9.948;2023-04-09T03:14:11;4.33;87.75
77496;SHT31;66600;48.378;9.948;2023-04-09T03:16:36;4.35;87.76
77496;SHT31;66600;48.378;9.948;2023-04-09T03:19:01;4.31;87.78
77496;SHT31;66600;48.378;9.948;2023-04-09T03:21:27;4.37;87.74
77496;SHT31;66600;48.378;9.948;2023-04-09T03:23:52;4.40;87.67
77496;SHT31;66600;48.378;9.948;2023-04-09T03:26:17;4.34;87.93
77496;SHT31;66600;48.378;9.948;2023-04-09T03:28:43;4.28;88.16
77496;SHT31;66600;48.378;9.948;2023-04-09T03:31:08;4.37;88.06
77496;SHT31;66600;48.378;9.948;2023-04-09T03:33:33;4.37;88.10
77496;SHT31;66600;48.378;9.948;2023-04-09T03:35:59;4.33;88.27
77496;SHT31;66600;48.378;9.948;2023-04-09T03:38:24;4.31;88.32
77496;SHT31;66600;48.378;9.948;2023-04-09T03:40:50;4.33;88.27
77496;SHT31;66600;48.378;9.948;2023-04-09T03:43:15;4.37;88.25
77496;SHT31;66600;48.378;9.948;2023-04-09T03:45:40;4.34;88.15
77496;SHT31;66600;48.378;9.948;2023-04-09T03:48:06;4.34;88.12
77496;SHT31;66600;48.378;9.948;2023-04-09T03:50:36;4.34;88.27
77496;SHT31;66600;48.378;9.948;2023-04-09T03:53:02;4.38;88.29
77496;SHT31;66600;48.378;9.948;2023-04-09T03:55:27;4.37;88.37
77496;SHT31;66600;48.378;9.948;2023-04-09T03:57:52;4.35;88.40
77496;SHT31;66600;48.378;9.948;2023-04-09T04:00:18;4.31;88.41
77496;SHT31;66600;48.378;9.948;2023-04-09T04:02:43;4.31;88.57
77496;SHT31;66600;48.378;9.948;2023-04-09T04:05:08;4.33;88.49
77496;SHT31;66600;48.378;9.948;2023-04-09T04:07:33;4.31;88.45
77496;SHT31;66600;48.378;9.948;2023-04-09T04:09:59;4.25;88.45
77496;SHT31;66600;48.378;9.948;2023-04-09T04:12:24;4.22;88.40
77496;SHT31;66600;48.378;9.948;2023-04-09T04:14:50;4.21;88.50
77496;SHT31;66600;48.378;9.948;2023-04-09T04:17:16;4.21;88.60
77496;SHT31;66600;48.378;9.948;2023-04-09T04:19:41;4.22;88.61
77496;SHT31;66600;48.378;9.948;2023-04-09T04:22:06;4.22;88.53
77496;SHT31;66600;48.378;9.948;2023-04-09T04:24:32;4.21;88.68
77496;SHT31;66600;48.378;9.948;2023-04-09T04:26:57;4.18;88.60
77496;SHT31;66600;48.378;9.948;2023-04-09T04:29:22;4.21;88.61
77496;SHT31;66600;48.378;9.948;2023-04-09T04:31:48;4.24;88.65
77496;SHT31;66600;48.378;9.948;2023-04-09T04:34:13;4.22;88.49
77496;SHT31;66600;48.378;9.948;2023-04-09T04:36:38;4.20;88.50
77496;SHT31;66600;48.378;9.948;2023-04-09T04:39:04;4.17;88.59
77496;SHT31;66600;48.378;9.948;2023-04-09T04:41:29;4.16;88.62
77496;SHT31;66600;48.378;9.948;2023-04-09T04:43:54;4.13;88.61
77496;SHT31;66600;48.378;9.948;2023-04-09T04:46:21;4.17;88.62
77496;SHT31;66600;48.378;9.948;2023-04-09T04:48:46;4.17;88.60
77496;SHT31;66600;48.378;9.948;2023-04-09T04:51:11;4.27;88.46
77496;SHT31;66600;48.378;9.948;2023-04-09T04:53:37;4.27;88.32
77496;SHT31;66600;48.378;9.948;2023-04-09T04:56:02;4.34;88.19
77496;SHT31;66600;48.378;9.948;2023-04-09T04:58:27;4.38;88.18
77496;SHT31;66600;48.378;9.948;2023-04-09T05:00:54;4.40;87.93
77496;SHT31;66600;48.378;9.948;2023-04-09T05:03:19;4.46;87.66
77496;SHT31;66600;48.378;9.948;2023-04-09T05:05:45;4.44;87.59
77496;SHT31;66600;48.378;9.948;2023-04-09T05:08:10;4.41;87.79
77496;SHT31;66600;48.378;9.948;2023-04-09T05:10:35;4.41;87.80
77496;SHT31;66600;48.378;9.948;2023-04-09T05:13:01;4.45;87.72
77496;SHT31;66600;48.378;9.948;2023-04-09T05:15:26;4.55;87.43
77496;SHT31;66600;48.378;9.948;2023-04-09T05:17:52;4.56;87.38
77496;SHT31;66600;48.378;9.948;2023-04-09T05:20:17;4.61;87.26
77496;SHT31;66600;48.378;9.948;2023-04-09T05:22:42;4.59;87.24
77496;SHT31;66600;48.378;9.948;2023-04-09T05:25:08;4.54;87.50
77496;SHT31;66600;48.378;9.948;2023-04-09T05:27:34;4.61;87.42
77496;SHT31;66600;48.378;9.948;2023-04-09T05:29:59;4.63;87.31
77496;SHT31;66600;48.378;9.948;2023-04-09T05:32:25;4.63;87.17
77496;SHT31;66600;48.378;9.948;2023-04-09T05:34:50;4.61;87.20
77496;SHT31;66600;48.378;9.948;2023-04-09T05:37:15;4.58;87.39
77496;SHT31;66600;48.378;9.948;2023-04-09T05:39:41;4.58;87.46
77496;SHT31;66600;48.378;9.948;2023-04-09T05:42:06;4.58;87.57
77496;SHT31;66600;48.378;9.948;2023-04-09T05:44:31;4.61;87.57
77496;SHT31;66600;48.378;9.948;2023-04-09T05:46:57;4.65;87.49
77496;SHT31;66600;48.378;9.948;2023-04-09T05:49:22;4.61;87.41
77496;SHT31;66600;48.378;9.948;2023-04-09T05:51:49;4.61;87.41
77496;SHT31;66600;48.378;9.948;2023-04-09T05:54:14;4.71;87.38
77496;SHT31;66600;48.378;9.948;2023-04-09T05:56:41;4.63;87.13
77496;SHT31;66600;48.378;9.948;2023-04-09T05:59:07;4.58;87.38
77496;SHT31;66600;48.378;9.948;2023-04-09T06:01:32;4.58;87.54
77496;SHT31;66600;48.378;9.948;2023-04-09T06:03:57;4.65;87.17
77496;SHT31;66600;48.378;9.948;2023-04-09T06:06:23;4.86;86.86
77496;SHT31;66600;48.378;9.948;2023-04-09T06:08:48;4.99;86.44
77496;SHT31;66600;48.378;9.948;2023-04-09T06:11:13;4.94;85.98
77496;SHT31;66600;48.378;9.948;2023-04-09T06:13:39;4.89;86.25
77496;SHT31;66600;48.378;9.948;2023-04-09T06:16:07;4.99;85.94
77496;SHT31;66600;48.378;9.948;2023-04-09T06:18:33;5.04;85.08
77496;SHT31;66600;48.378;9.948;2023-04-09T06:21:06;5.21;85.18
77496;SHT31;66600;48.378;9.948;2023-04-09T06:23:33;5.48;84.51
77496;SHT31;66600;48.378;9.948;2023-04-09T06:25:59;5.70;83.86
77496;SHT31;66600;48.378;9.948;2023-04-09T06:28:24;5.59;83.56
77496;SHT31;66600;48.378;9.948;2023-04-09T06:30:50;5.63;82.80
77496;SHT31;66600;48.378;9.948;2023-04-09T06:33:17;5.95;82.88
77496;SHT31;66600;48.378;9.948;2023-04-09T06:35:43;5.80;82.55
77496;SHT31;66600;48.378;9.948;2023-04-09T06:38:08;5.72;83.27
77496;SHT31;66600;48.378;9.948;2023-04-09T06:40:36;5.47;83.63
77496;SHT31;66600;48.378;9.948;2023-04-09T06:43:02;5.40;84.36
77496;SHT31;66600;48.378;9.948;2023-04-09T06:45:27;5.01;85.02
77496;SHT31;66600;48.378;9.948;2023-04-09T06:47:53;4.87;85.80
77496;SHT31;66600;48.378;9.948;2023-04-09T06:50:18;4.72;86.45
77496;SHT31;66600;48.378;9.948;2023-04-09T06:52:43;4.80;86.83
77496;SHT31;66600;48.378;9.948;2023-04-09T06:55:09;4.66;86.79
77496;SHT31;66600;48.378;9.948;2023-04-09T06:57:35;4.75;87.00
77496;SHT31;66600;48.378;9.948;2023-04-09T07:00:02;4.80;86.52
77496;SHT31;66600;48.378;9.948;2023-04-09T07:02:27;4.71;86.30
77496;SHT31;66600;48.378;9.948;2023-04-09T07:04:53;4.87;86.19
77496;SHT31;66600;48.378;9.948;2023-04-09T07:07:18;5.10;85.54
77496;SHT31;66600;48.378;9.948;2023-04-09T07:09:45;5.16;85.04
77496;SHT31;66600;48.378;9.948;2023-04-09T07:12:10;5.10;84.88
77496;SHT31;66600;48.378;9.948;2023-04-09T07:14:35;5.14;85.07
77496;SHT31;66600;48.378;9.948;2023-04-09T07:17:01;5.37;83.92
77496;SHT31;66600;48.378;9.948;2023-04-09T07:19:26;5.35;84.43
77496;SHT31;66600;48.378;9.948;2023-04-09T07:21:51;5.63;83.90
77496;SHT31;66600;48.378;9.948;2023-04-09T07:24:17;5.73;82.91
77496;SHT31;66600;48.378;9.948;2023-04-09T07:26:42;5.79;82.88
77496;SHT31;66600;48.378;9.948;2023-04-09T07:29:07;5.90;82.80
77496;SHT31;66600;48.378;9.948;2023-04-09T07:31:33;5.83;82.15
77496;SHT31;66600;48.378;9.948;2023-04-09T07:33:58;5.58;82.66
77496;SHT31;66600;48.378;9.948;2023-04-09T07:36:23;5.26;83.49
77496;SHT31;66600;48.378;9.948;2023-04-09T07:38:49;5.45;83.18
77496;SHT31;66600;48.378;9.948;2023-04-09T07:41:15;5.54;83.16
77496;SHT31;66600;48.378;9.948;2023-04-09T07:43:41;5.49;82.96
77496;SHT31;66600;48.378;9.948;2023-04-09T07:46:06;5.52;81.99
77496;SHT31;66600;48.378;9.948;2023-04-09T07:48:31;5.70;81.40
77496;SHT31;66600;48.378;9.948;2023-04-09T07:50:57;6.02;80.83
77496;SHT31;66600;48.378;9.948;2023-04-09T07:53:22;6.24;79.58
77496;SHT31;66600;48.378;9.948;2023-04-09T07:55:49;6.05;79.47
77496;SHT31;66600;48.378;9.948;2023-04-09T07:58:15;6.05;80.16
77496;SHT31;66600;48.378;9.948;2023-04-09T08:00:40;6.09;80.11
77496;SHT31;66600;48.378;9.948;2023-04-09T08:03:06;5.87;80.83
77496;SHT31;66600;48.378;9.948;2023-04-09T08:05:31;5.89;81.36
77496;SHT31;66600;48.378;9.948;2023-04-09T08:07:56;5.82;80.61
77496;SHT31;66600;48.378;9.948;2023-04-09T08:10:22;5.90;80.54
77496;SHT31;66600;48.378;9.948;2023-04-09T08:12:48;5.93;79.98
77496;SHT31;66600;48.378;9.948;2023-04-09T08:15:13;5.95;79.89
77496;SHT31;66600;48.378;9.948;2023-04-09T08:17:39;6.10;79.51
77496;SHT31;66600;48.378;9.948;2023-04-09T08:20:05;6.21;79.19
77496;SHT31;66600;48.378;9.948;2023-04-09T08:22:31;6.28;79.32
77496;SHT31;66600;48.378;9.948;2023-04-09T08:24:57;6.25;78.99
77496;SHT31;66600;48.378;9.948;2023-04-09T08:27:23;6.37;78.83
77496;SHT31;66600;48.378;9.948;2023-04-09T08:29:48;6.71;78.33
77496;SHT31;66600;48.378;9.948;2023-04-09T08:32:14;7.47;76.92
77496;SHT31;66600;48.378;9.948;2023-04-09T08:34:39;8.10;73.52
77496;SHT31;66600;48.378;9.948;2023-04-09T08:37:05;8.19;72.12
77496;SHT31;66600;48.378;9.948;2023-04-09T08:39:31;7.46;73.12
77496;SHT31;66600;48.378;9.948;2023-04-09T08:41:59;7.81;73.22
77496;SHT31;66600;48.378;9.948;2023-04-09T08:44:26;8.62;72.22
77496;SHT31;66600;48.378;9.948;2023-04-09T08:46:51;9.20;68.77
77496;SHT31;66600;48.378;9.948;2023-04-09T08:49:17;10.01;67.59
77496;SHT31;66600;48.378;9.948;2023-04-09T08:51:45;10.47;64.33
77496;SHT31;66600;48.378;9.948;2023-04-09T08:54:16;10.34;63.69
77496;SHT31;66600;48.378;9.948;2023-04-09T08:56:44;10.16;63.69
77496;SHT31;66600;48.378;9.948;2023-04-09T08:59:10;9.72;63.67
77496;SHT31;66600;48.378;9.948;2023-04-09T09:01:35;9.44;65.63
77496;SHT31;66600;48.378;9.948;2023-04-09T09:04:05;9.64;65.20
77496;SHT31;66600;48.378;9.948;2023-04-09T09:06:33;9.67;63.65
77496;SHT31;66600;48.378;9.948;2023-04-09T09:09:17;8.72;66.76
77496;SHT31;66600;48.378;9.948;2023-04-09T09:11:47;8.92;65.96
77496;SHT31;66600;48.378;9.948;2023-04-09T09:14:18;9.27;67.35
77496;SHT31;66600;48.378;9.948;2023-04-09T09:17:02;8.57;65.77
77496;SHT31;66600;48.378;9.948;2023-04-09T09:19:32;8.81;65.95
77496;SHT31;66600;48.378;9.948;2023-04-09T09:22:02;9.12;63.69
77496;SHT31;66600;48.378;9.948;2023-04-09T09:24:28;9.43;63.96
77496;SHT31;66600;48.378;9.948;2023-04-09T09:26:53;9.07;63.66
77496;SHT31;66600;48.378;9.948;2023-04-09T09:29:19;9.31;64.86
77496;SHT31;66600;48.378;9.948;2023-04-09T09:31:49;9.40;64.22
77496;SHT31;66600;48.378;9.948;2023-04-09T09:34:16;9.82;62.62
77496;SHT31;66600;48.378;9.948;2023-04-09T09:36:42;9.78;60.62
77496;SHT31;66600;48.378;9.948;2023-04-09T09:39:07;9.58;61.94
77496;SHT31;66600;48.378;9.948;2023-04-09T09:41:40;10.10;61.16
77496;SHT31;66600;48.378;9.948;2023-04-09T09:44:06;10.36;61.17
77496;SHT31;66600;48.378;9.948;2023-04-09T09:46:36;10.19;60.51
77496;SHT31;66600;48.378;9.948;2023-04-09T09:49:04;9.55;60.48
77496;SHT31;66600;48.378;9.948;2023-04-09T09:51:31;9.91;60.71
77496;SHT31;66600;48.378;9.948;2023-04-09T09:53:57;10.14;60.15
77496;SHT31;66600;48.378;9.948;2023-04-09T09:56:30;9.54;59.87
77496;SHT31;66600;48.378;9.948;2023-04-09T09:59:18;9.30;60.74
77496;SHT31;66600;48.378;9.948;2023-04-09T10:01:46;9.78;59.97
77496;SHT31;66600;48.378;9.948;2023-04-09T10:04:13;10.20;58.34
77496;SHT31;66600;48.378;9.948;2023-04-09T10:06:43;10.43;57.09
77496;SHT31;66600;48.378;9.948;2023-04-09T10:09:09;10.32;57.94
77496;SHT31;66600;48.378;9.948;2023-04-09T10:11:36;10.95;57.77
77496;SHT31;66600;48.378;9.948;2023-04-09T10:14:02;11.34;53.23
77496;SHT31;66600;48.378;9.948;2023-04-09T10:16:29;11.70;53.76
77496;SHT31;66600;48.378;9.948;2023-04-09T10:18:56;11.75;52.77
77496;SHT31;66600;48.378;9.948;2023-04-09T10:21:33;11.70;53.53
77496;SHT31;66600;48.378;9.948;2023-04-09T10:24:00;12.01;52.57
77496;SHT31;66600;48.378;9.948;2023-04-09T10:26:31;11.61;49.98
77496;SHT31;66600;48.378;9.948;2023-04-09T10:29:14;11.90;49.60
77496;SHT31;66600;48.378;9.948;2023-04-09T10:31:53;12.33;49.54
77496;SHT31;66600;48.378;9.948;2023-04-09T10:34:23;12.63;50.09
77496;SHT31;66600;48.378;9.948;2023-04-09T10:36:59;12.66;48.11
77496;SHT31;66600;48.378;9.948;2023-04-09T10:39:39;12.76;46.77
77496;SHT31;66600;48.378;9.948;2023-04-09T10:42:14;12.87;48.03
77496;SHT31;66600;48.378;9.948;2023-04-09T10:44:41;12.91;48.26
77496;SHT31;66600;48.378;9.948;2023-04-09T10:47:08;12.36;46.38
77496;SHT31;66600;48.378;9.948;2023-04-09T10:49:36;12.15;48.96
77496;SHT31;66600;48.378;9.948;2023-04-09T10:59:36;12.21;49.58
77496;SHT31;66600;48.378;9.948;2023-04-09T11:02:03;12.45;48.80
77496;SHT31;66600;48.378;9.948;2023-04-09T11:07:16;13.04;46.04
77496;SHT31;66600;48.378;9.948;2023-04-09T11:09:42;13.08;46.42
77496;SHT31;66600;48.378;9.948;2023-04-09T11:12:10;12.91;44.30
77496;SHT31;66600;48.378;9.948;2023-04-09T11:14:35;12.18;47.54
77496;SHT31;66600;48.378;9.948;2023-04-09T11:17:02;11.27;48.76
77496;SHT31;66600;48.378;9.948;2023-04-09T11:19:27;11.23;50.47
77496;SHT31;66600;48.378;9.948;2023-04-09T11:21:52;11.40;49.55
77496;SHT31;66600;48.378;9.948;2023-04-09T11:24:18;11.87;48.64
77496;SHT31;66600;48.378;9.948;2023-04-09T11:26:43;12.28;47.33
77496;SHT31;66600;48.378;9.948;2023-04-09T11:29:09;12.52;47.42
77496;SHT31;66600;48.378;9.948;2023-04-09T11:31:35;12.30;47.31
77496;SHT31;66600;48.378;9.948;2023-04-09T11:34:01;11.91;47.35
77496;SHT31;66600;48.378;9.948;2023-04-09T11:36:27;11.52;48.40
77496;SHT31;66600;48.378;9.948;2023-04-09T11:38:53;11.69;48.54
77496;SHT31;66600;48.378;9.948;2023-04-09T11:41:39;11.67;49.61
77496;SHT31;66600;48.378;9.948;2023-04-09T11:44:06;11.56;49.19
77496;SHT31;66600;48.378;9.948;2023-04-09T11:46:33;11.57;48.91
77496;SHT31;66600;48.378;9.948;2023-04-09T11:48:58;11.75;49.39
77496;SHT31;66600;48.378;9.948;2023-04-09T11:51:25;12.24;47.66
77496;SHT31;66600;48.378;9.948;2023-04-09T11:53:51;12.73;47.99
77496;SHT31;66600;48.378;9.948;2023-04-09T11:56:17;12.72;45.66
77496;SHT31;66600;48.378;9.948;2023-04-09T11:58:46;12.57;45.78
77496;SHT31;66600;48.378;9.948;2023-04-09T12:01:12;11.75;47.94
77496;SHT31;66600;48.378;9.948;2023-04-09T12:03:38;11.66;46.82
77496;SHT31;66600;48.378;9.948;2023-04-09T12:06:04;11.97;46.68
77496;SHT31;66600;48.378;9.948;2023-04-09T12:08:30;12.29;47.16
77496;SHT31;66600;48.378;9.948;2023-04-09T12:10:55;12.85;44.87
77496;SHT31;66600;48.378;9.948;2023-04-09T12:13:31;13.46;45.57
77496;SHT31;66600;48.378;9.948;2023-04-09T12:15:56;14.08;43.56
77496;SHT31;66600;48.378;9.948;2023-04-09T12:18:24;14.28;40.14
77496;SHT31;66600;48.378;9.948;2023-04-09T12:20:50;14.59;41.23
77496;SHT31;66600;48.378;9.948;2023-04-09T12:23:15;14.53;40.06
77496;SHT31;66600;48.378;9.948;2023-04-09T12:25:42;15.03;40.81
77496;SHT31;66600;48.378;9.948;2023-04-09T12:28:09;15.16;39.27
77496;SHT31;66600;48.378;9.948;2023-04-09T12:30:35;14.86;40.31
77496;SHT31;66600;48.378;9.948;2023-04-09T12:33:02;13.16;43.92
77496;SHT31;66600;48.378;9.948;2023-04-09T12:35:27;13.36;44.19
77496;SHT31;66600;48.378;9.948;2023-04-09T12:37:53;13.80;44.39
77496;SHT31;66600;48.378;9.948;2023-04-09T12:40:19;13.81;44.18
77496;SHT31;66600;48.378;9.948;2023-04-09T12:42:45;14.28;42.86
77496;SHT31;66600;48.378;9.948;2023-04-09T12:45:15;14.45;42.59
77496;SHT31;66600;48.378;9.948;2023-04-09T12:47:41;14.13;42.15
77496;SHT31;66600;48.378;9.948;2023-04-09T12:50:07;14.04;41.90
77496;SHT31;66600;48.378;9.948;2023-04-09T12:52:34;13.94;43.34
77496;SHT31;66600;48.378;9.948;2023-04-09T12:55:00;14.08;43.80
77496;SHT31;66600;48.378;9.948;2023-04-09T12:57:26;13.70;43.37
77496;SHT31;66600;48.378;9.948;2023-04-09T12:59:51;13.39;43.78
77496;SHT31;66600;48.378;9.948;2023-04-09T13:02:17;13.43;43.96
77496;SHT31;66600;48.378;9.948;2023-04-09T13:04:42;13.45;43.81
77496;SHT31;66600;48.378;9.948;2023-04-09T13:07:08;13.59;43.24
77496;SHT31;66600;48.378;9.948;2023-04-09T13:09:33;13.48;44.29
77496;SHT31;66600;48.378;9.948;2023-04-09T13:11:59;13.05;44.96
77496;SHT31;66600;48.378;9.948;2023-04-09T13:14:25;13.46;44.51
77496;SHT31;66600;48.378;9.948;2023-04-09T13:16:50;13.86;43.03
77496;SHT31;66600;48.378;9.948;2023-04-09T13:19:16;14.03;43.26
77496;SHT31;66600;48.378;9.948;2023-04-09T13:21:42;14.58;41.32
77496;SHT31;66600;48.378;9.948;2023-04-09T13:24:08;15.12;40.32
77496;SHT31;66600;48.378;9.948;2023-04-09T13:26:33;15.65;40.40
77496;SHT31;66600;48.378;9.948;2023-04-09T13:28:58;15.66;39.96
77496;SHT31;66600;48.378;9.948;2023-04-09T13:31:24;15.18;39.92
77496;SHT31;66600;48.378;9.948;2023-04-09T13:33:49;15.30;40.19
77496;SHT31;66600;48.378;9.948;2023-04-09T13:36:15;14.91;41.69
77496;SHT31;66600;48.378;9.948;2023-04-09T13:38:40;13.66;40.92
77496;SHT31;66600;48.378;9.948;2023-04-09T13:41:06;13.73;41.61
77496;SHT31;66600;48.378;9.948;2023-04-09T13:43:31;14.11;42.68
77496;SHT31;66600;48.378;9.948;2023-04-09T13:45:56;14.63;40.80
77496;SHT31;66600;48.378;9.948;2023-04-09T13:48:22;14.94;40.73
77496;SHT31;66600;48.378;9.948;2023-04-09T13:50:48;14.99;39.80
77496;SHT31;66600;48.378;9.948;2023-04-09T13:53:13;15.67;38.85
77496;SHT31;66600;48.378;9.948;2023-04-09T13:55:39;16.18;39.35
77496;SHT31;66600;48.378;9.948;2023-04-09T13:58:04;16.82;35.97
77496;SHT31;66600;48.378;9.948;2023-04-09T14:00:30;16.95;35.30
77496;SHT31;66600;48.378;9.948;2023-04-09T14:02:56;17.34;37.04
77496;SHT31;66600;48.378;9.948;2023-04-09T14:05:21;16.87;37.46
77496;SHT31;66600;48.378;9.948;2023-04-09T14:07:46;17.47;35.60
77496;SHT31;66600;48.378;9.948;2023-04-09T14:10:12;17.12;36.63
77496;SHT31;66600;48.378;9.948;2023-04-09T14:12:37;15.55;37.75
77496;SHT31;66600;48.378;9.948;2023-04-09T14:15:03;13.88;40.45
77496;SHT31;66600;48.378;9.948;2023-04-09T14:17:28;13.48;43.22
77496;SHT31;66600;48.378;9.948;2023-04-09T14:19:53;13.32;43.17
77496;SHT31;66600;48.378;9.948;2023-04-09T14:22:19;13.21;43.27
77496;SHT31;66600;48.378;9.948;2023-04-09T14:24:44;12.98;44.18
77496;SHT31;66600;48.378;9.948;2023-04-09T14:27:09;13.28;43.11
77496;SHT31;66600;48.378;9.948;2023-04-09T14:29:35;14.28;41.37
77496;SHT31;66600;48.378;9.948;2023-04-09T14:32:00;15.52;38.26
77496;SHT31;66600;48.378;9.948;2023-04-09T14:34:28;16.52;36.17
77496;SHT31;66600;48.378;9.948;2023-04-09T14:36:55;17.45;33.42
77496;SHT31;66600;48.378;9.948;2023-04-09T14:39:20;17.75;34.27
77496;SHT31;66600;48.378;9.948;2023-04-09T14:41:45;18.36;31.85
77496;SHT31;66600;48.378;9.948;2023-04-09T14:44:11;18.92;31.36
77496;SHT31;66600;48.378;9.948;2023-04-09T14:46:36;18.32;31.94
77496;SHT31;66600;48.378;9.948;2023-04-09T14:49:01;17.05;34.21
77496;SHT31;66600;48.378;9.948;2023-04-09T14:51:28;15.42;36.63
77496;SHT31;66600;48.378;9.948;2023-04-09T14:53:56;14.51;38.57
77496;SHT31;66600;48.378;9.948;2023-04-09T14:56:22;13.88;40.60
77496;SHT31;66600;48.378;9.948;2023-04-09T14:58:49;13.86;41.61
77496;SHT31;66600;48.378;9.948;2023-04-09T15:01:15;13.83;41.67
77496;SHT31;66600;48.378;9.948;2023-04-09T15:03:40;13.50;41.54
77496;SHT31;66600;48.378;9.948;2023-04-09T15:06:06;13.23;41.86
77496;SHT31;66600;48.378;9.948;2023-04-09T15:08:32;13.38;42.01
77496;SHT31;66600;48.378;9.948;2023-04-09T15:10:57;13.08;42.22
77496;SHT31;66600;48.378;9.948;2023-04-09T15:13:22;12.77;43.26
77496;SHT31;66600;48.378;9.948;2023-04-09T15:15:48;12.74;43.56
77496;SHT31;66600;48.378;9.948;2023-04-09T15:18:13;12.63;44.38
77496;SHT31;66600;48.378;9.948;2023-04-09T15:20:40;12.25;45.61
77496;SHT31;66600;48.378;9.948;2023-04-09T15:23:07;12.12;46.46
77496;SHT31;66600;48.378;9.948;2023-04-09T15:25:32;12.18;46.75
77496;SHT31;66600;48.378;9.948;2023-04-09T15:27:57;12.40;46.18
77496;SHT31;66600;48.378;9.948;2023-04-09T15:30:23;12.28;46.32
77496;SHT31;66600;48.378;9.948;2023-04-09T15:32:48;13.84;43.32
77496;SHT31;66600;48.378;9.948;2023-04-09T15:35:13;14.97;40.76
77496;SHT31;66600;48.378;9.948;2023-04-09T15:37:43;15.14;40.34
77496;SHT31;66600;48.378;9.948;2023-04-09T15:40:08;16.27;38.06
77496;SHT31;66600;48.378;9.948;2023-04-09T15:42:34;17.19;36.22
77496;SHT31;66600;48.378;9.948;2023-04-09T15:44:59;16.40;37.29
77496;SHT31;66600;48.378;9.948;2023-04-09T15:47:25;15.99;38.61
77496;SHT31;66600;48.378;9.948;2023-04-09T15:49:50;15.42;39.89
77496;SHT31;66600;48.378;9.948;2023-04-09T15:52:15;16.51;37.69
77496;SHT31;66600;48.378;9.948;2023-04-09T15:54:40;17.00;35.95